sensor_id;sensor_type;location;lat;lon;timestamp;P1;durP1;ratioP1;P2;durP2;ratioP2
71462;SDS011;59266;52.608;13.260;2022-07-19T00:02:11;12.93;;;5.22;;
71462;SDS011;59266;52.608;13.260;2022-07-19T00:04:37;14.70;;;5.35;;
71462;SDS011;59266;52.608;13.260;2022-07-19T00:07:04;11.55;;;4.55;;
71462;SDS011;59266;52.608;13.260;2022-07-19T00:09:30;11.00;;;5.38;;
71462;SDS011;59266;52.608;13.260;2022-07-19T00:11:57;12.98;;;5.32;;
71462;SDS011;59266;52.608;13.260;2022-07-19T00:14:23;13.27;;;4.95;;
71462;SDS011;59266;52.608;13.260;2022-07-19T00:16:50;11.38;;;5.03;;
71462;SDS011;59266;52.608;13.260;2022-07-19T00:19:17;11.85;;;5.32;;
71462;SDS011;59266;52.608;13.260;2022-07-19T00:21:45;11.43;;;5.18;;
71462;SDS011;59266;52.608;13.260;2022-07-19T00:24:12;12.45;;;5.22;;
71462;SDS011;59266;52.608;13.260;2022-07-19T00:26:38;11.77;;;5.05;;
71462;SDS011;59266;52.608;13.260;2022-07-19T00:29:05;8.65;;;4.55;;
71462;SDS011;59266;52.608;13.260;2022-07-19T00:31:32;12.35;;;5.45;;
71462;SDS011;59266;52.608;13.260;2022-07-19T00:33:59;11.25;;;4.88;;
71462;SDS011;59266;52.608;13.260;2022-07-19T00:36:26;12.77;;;4.95;;
71462;SDS011;59266;52.608;13.260;2022-07-19T00:38:52;10.50;;;5.00;;
71462;SDS011;59266;52.608;13.260;2022-07-19T00:41:19;10.90;;;5.40;;
71462;SDS011;59266;52.608;13.260;2022-07-19T00:43:45;14.15;;;5.03;;
71462;SDS011;59266;52.608;13.260;2022-07-19T00:46:16;10.57;;;5.05;;
71462;SDS011;59266;52.608;13.260;2022-07-19T00:48:44;11.13;;;5.28;;
71462;SDS011;59266;52.608;13.260;2022-07-19T00:51:14;9.63;;;4.88;;
71462;SDS011;59266;52.608;13.260;2022-07-19T00:53:42;11.60;;;4.95;;
71462;SDS011;59266;52.608;13.260;2022-07-19T00:56:10;9.30;;;4.45;;
71462;SDS011;59266;52.608;13.260;2022-07-19T00:58:40;13.60;;;5.63;;
71462;SDS011;59266;52.608;13.260;2022-07-19T01:01:07;11.55;;;5.13;;
71462;SDS011;59266;52.608;13.260;2022-07-19T01:03:37;11.02;;;4.95;;
71462;SDS011;59266;52.608;13.260;2022-07-19T01:06:05;12.98;;;5.07;;
71462;SDS011;59266;52.608;13.260;2022-07-19T01:08:34;16.13;;;5.22;;
71462;SDS011;59266;52.608;13.260;2022-07-19T01:11:03;12.68;;;5.50;;
71462;SDS011;59266;52.608;13.260;2022-07-19T01:13:32;12.20;;;5.25;;
71462;SDS011;59266;52.608;13.260;2022-07-19T01:15:59;16.60;;;5.30;;
71462;SDS011;59266;52.608;13.260;2022-07-19T01:18:28;15.90;;;5.32;;
71462;SDS011;59266;52.608;13.260;2022-07-19T01:20:54;10.88;;;4.57;;
71462;SDS011;59266;52.608;13.260;2022-07-19T01:23:23;11.90;;;5.03;;
71462;SDS011;59266;52.608;13.260;2022-07-19T01:25:50;11.43;;;5.20;;
71462;SDS011;59266;52.608;13.260;2022-07-19T01:28:17;15.35;;;5.18;;
71462;SDS011;59266;52.608;13.260;2022-07-19T01:30:43;12.77;;;5.50;;
71462;SDS011;59266;52.608;13.260;2022-07-19T01:33:11;11.43;;;5.07;;
71462;SDS011;59266;52.608;13.260;2022-07-19T01:35:37;10.93;;;5.00;;
71462;SDS011;59266;52.608;13.260;2022-07-19T01:38:04;12.88;;;5.13;;
71462;SDS011;59266;52.608;13.260;2022-07-19T01:40:30;11.85;;;5.18;;
71462;SDS011;59266;52.608;13.260;2022-07-19T01:42:59;11.82;;;5.10;;
71462;SDS011;59266;52.608;13.260;2022-07-19T01:45:26;11.77;;;5.28;;
71462;SDS011;59266;52.608;13.260;2022-07-19T01:47:53;15.52;;;5.35;;
71462;SDS011;59266;52.608;13.260;2022-07-19T01:50:19;11.85;;;4.85;;
71462;SDS011;59266;52.608;13.260;2022-07-19T01:52:47;12.70;;;5.20;;
71462;SDS011;59266;52.608;13.260;2022-07-19T01:55:16;12.45;;;5.38;;
71462;SDS011;59266;52.608;13.260;2022-07-19T01:57:45;11.68;;;5.38;;
71462;SDS011;59266;52.608;13.260;2022-07-19T02:00:12;11.57;;;5.28;;
71462;SDS011;59266;52.608;13.260;2022-07-19T02:02:39;11.38;;;5.35;;
71462;SDS011;59266;52.608;13.260;2022-07-19T02:05:06;11.65;;;5.20;;
71462;SDS011;59266;52.608;13.260;2022-07-19T02:07:36;15.48;;;5.05;;
71462;SDS011;59266;52.608;13.260;2022-07-19T02:10:04;12.40;;;5.03;;
71462;SDS011;59266;52.608;13.260;2022-07-19T02:12:31;12.55;;;5.05;;
71462;SDS011;59266;52.608;13.260;2022-07-19T02:14:58;13.38;;;5.10;;
71462;SDS011;59266;52.608;13.260;2022-07-19T02:17:24;12.25;;;5.25;;
71462;SDS011;59266;52.608;13.260;2022-07-19T02:19:51;11.10;;;5.15;;
71462;SDS011;59266;52.608;13.260;2022-07-19T02:22:17;11.90;;;5.10;;
71462;SDS011;59266;52.608;13.260;2022-07-19T02:24:44;10.88;;;4.47;;
71462;SDS011;59266;52.608;13.260;2022-07-19T02:27:10;12.07;;;5.03;;
71462;SDS011;59266;52.608;13.260;2022-07-19T02:29:37;11.98;;;5.63;;
71462;SDS011;59266;52.608;13.260;2022-07-19T02:32:04;11.52;;;4.82;;
71462;SDS011;59266;52.608;13.260;2022-07-19T02:34:31;11.70;;;4.80;;
71462;SDS011;59266;52.608;13.260;2022-07-19T02:36:58;12.20;;;5.25;;
71462;SDS011;59266;52.608;13.260;2022-07-19T02:39:25;12.43;;;5.30;;
71462;SDS011;59266;52.608;13.260;2022-07-19T02:41:51;11.02;;;4.95;;
71462;SDS011;59266;52.608;13.260;2022-07-19T02:44:18;10.00;;;5.20;;
71462;SDS011;59266;52.608;13.260;2022-07-19T02:46:44;11.05;;;4.60;;
71462;SDS011;59266;52.608;13.260;2022-07-19T02:49:11;12.38;;;4.88;;
71462;SDS011;59266;52.608;13.260;2022-07-19T02:51:37;11.90;;;5.30;;
71462;SDS011;59266;52.608;13.260;2022-07-19T02:54:04;12.15;;;4.88;;
71462;SDS011;59266;52.608;13.260;2022-07-19T02:56:30;12.30;;;5.45;;
71462;SDS011;59266;52.608;13.260;2022-07-19T02:58:57;12.15;;;4.80;;
71462;SDS011;59266;52.608;13.260;2022-07-19T03:01:23;10.88;;;5.32;;
71462;SDS011;59266;52.608;13.260;2022-07-19T03:03:50;13.18;;;4.60;;
71462;SDS011;59266;52.608;13.260;2022-07-19T03:06:18;11.15;;;5.00;;
71462;SDS011;59266;52.608;13.260;2022-07-19T03:08:45;11.82;;;4.47;;
71462;SDS011;59266;52.608;13.260;2022-07-19T03:11:12;9.75;;;4.70;;
71462;SDS011;59266;52.608;13.260;2022-07-19T03:13:39;10.00;;;4.72;;
71462;SDS011;59266;52.608;13.260;2022-07-19T03:16:06;12.57;;;5.03;;
71462;SDS011;59266;52.608;13.260;2022-07-19T03:18:33;11.63;;;4.72;;
71462;SDS011;59266;52.608;13.260;2022-07-19T03:21:00;13.18;;;4.88;;
71462;SDS011;59266;52.608;13.260;2022-07-19T03:23:30;13.85;;;4.60;;
71462;SDS011;59266;52.608;13.260;2022-07-19T03:25:57;11.60;;;4.45;;
71462;SDS011;59266;52.608;13.260;2022-07-19T03:28:24;10.55;;;5.25;;
71462;SDS011;59266;52.608;13.260;2022-07-19T03:30:51;10.75;;;4.80;;
71462;SDS011;59266;52.608;13.260;2022-07-19T03:33:17;13.25;;;4.68;;
71462;SDS011;59266;52.608;13.260;2022-07-19T03:35:44;12.80;;;4.97;;
71462;SDS011;59266;52.608;13.260;2022-07-19T03:38:12;9.93;;;4.68;;
71462;SDS011;59266;52.608;13.260;2022-07-19T03:40:39;9.00;;;3.95;;
71462;SDS011;59266;52.608;13.260;2022-07-19T03:43:05;14.60;;;5.40;;
71462;SDS011;59266;52.608;13.260;2022-07-19T03:45:33;9.80;;;4.20;;
71462;SDS011;59266;52.608;13.260;2022-07-19T03:47:59;13.88;;;4.43;;
71462;SDS011;59266;52.608;13.260;2022-07-19T03:50:27;11.55;;;5.60;;
71462;SDS011;59266;52.608;13.260;2022-07-19T03:52:53;9.60;;;4.32;;
71462;SDS011;59266;52.608;13.260;2022-07-19T03:55:20;11.23;;;4.65;;
71462;SDS011;59266;52.608;13.260;2022-07-19T03:57:47;9.70;;;4.18;;
71462;SDS011;59266;52.608;13.260;2022-07-19T04:00:13;12.43;;;4.90;;
71462;SDS011;59266;52.608;13.260;2022-07-19T04:02:40;14.43;;;4.05;;
71462;SDS011;59266;52.608;13.260;2022-07-19T04:05:10;12.63;;;4.57;;
71462;SDS011;59266;52.608;13.260;2022-07-19T04:07:38;10.77;;;4.53;;
71462;SDS011;59266;52.608;13.260;2022-07-19T04:10:04;15.75;;;4.78;;
71462;SDS011;59266;52.608;13.260;2022-07-19T04:12:31;10.27;;;4.63;;
71462;SDS011;59266;52.608;13.260;2022-07-19T04:14:57;12.20;;;5.05;;
71462;SDS011;59266;52.608;13.260;2022-07-19T04:17:24;11.07;;;4.50;;
71462;SDS011;59266;52.608;13.260;2022-07-19T04:19:50;12.10;;;4.60;;
71462;SDS011;59266;52.608;13.260;2022-07-19T04:22:17;11.00;;;5.18;;
71462;SDS011;59266;52.608;13.260;2022-07-19T04:24:44;10.88;;;5.15;;
71462;SDS011;59266;52.608;13.260;2022-07-19T04:27:10;12.27;;;4.68;;
71462;SDS011;59266;52.608;13.260;2022-07-19T04:29:38;13.93;;;4.50;;
71462;SDS011;59266;52.608;13.260;2022-07-19T04:32:04;10.38;;;4.57;;
71462;SDS011;59266;52.608;13.260;2022-07-19T04:34:31;11.77;;;5.72;;
71462;SDS011;59266;52.608;13.260;2022-07-19T04:36:58;12.82;;;5.30;;
71462;SDS011;59266;52.608;13.260;2022-07-19T04:39:24;12.70;;;4.72;;
71462;SDS011;59266;52.608;13.260;2022-07-19T04:41:51;10.15;;;4.32;;
71462;SDS011;59266;52.608;13.260;2022-07-19T04:44:18;13.18;;;4.78;;
71462;SDS011;59266;52.608;13.260;2022-07-19T04:46:46;12.13;;;4.90;;
71462;SDS011;59266;52.608;13.260;2022-07-19T04:49:13;9.52;;;4.50;;
71462;SDS011;59266;52.608;13.260;2022-07-19T04:51:39;11.93;;;4.32;;
71462;SDS011;59266;52.608;13.260;2022-07-19T04:54:06;12.85;;;4.63;;
71462;SDS011;59266;52.608;13.260;2022-07-19T04:56:33;11.50;;;4.90;;
71462;SDS011;59266;52.608;13.260;2022-07-19T04:58:59;13.70;;;5.00;;
71462;SDS011;59266;52.608;13.260;2022-07-19T05:01:26;11.38;;;4.80;;
71462;SDS011;59266;52.608;13.260;2022-07-19T05:03:53;11.48;;;4.43;;
71462;SDS011;59266;52.608;13.260;2022-07-19T05:06:19;12.45;;;4.82;;
71462;SDS011;59266;52.608;13.260;2022-07-19T05:08:46;11.02;;;5.00;;
71462;SDS011;59266;52.608;13.260;2022-07-19T05:11:12;13.25;;;4.57;;
71462;SDS011;59266;52.608;13.260;2022-07-19T05:13:39;12.02;;;4.90;;
71462;SDS011;59266;52.608;13.260;2022-07-19T05:16:06;10.38;;;4.90;;
71462;SDS011;59266;52.608;13.260;2022-07-19T05:18:32;10.60;;;4.70;;
71462;SDS011;59266;52.608;13.260;2022-07-19T05:20:59;13.93;;;4.82;;
71462;SDS011;59266;52.608;13.260;2022-07-19T05:23:25;15.52;;;5.30;;
71462;SDS011;59266;52.608;13.260;2022-07-19T05:25:52;14.43;;;5.22;;
71462;SDS011;59266;52.608;13.260;2022-07-19T05:28:18;19.38;;;5.43;;
71462;SDS011;59266;52.608;13.260;2022-07-19T05:30:45;13.65;;;5.68;;
71462;SDS011;59266;52.608;13.260;2022-07-19T05:33:11;10.20;;;4.40;;
71462;SDS011;59266;52.608;13.260;2022-07-19T05:35:38;10.95;;;4.65;;
71462;SDS011;59266;52.608;13.260;2022-07-19T05:38:05;13.05;;;5.28;;
71462;SDS011;59266;52.608;13.260;2022-07-19T05:40:34;14.73;;;4.85;;
71462;SDS011;59266;52.608;13.260;2022-07-19T05:43:01;11.85;;;4.75;;
71462;SDS011;59266;52.608;13.260;2022-07-19T05:45:28;13.40;;;4.65;;
71462;SDS011;59266;52.608;13.260;2022-07-19T05:47:54;14.23;;;4.82;;
71462;SDS011;59266;52.608;13.260;2022-07-19T05:50:21;14.32;;;5.03;;
71462;SDS011;59266;52.608;13.260;2022-07-19T05:52:47;9.18;;;4.20;;
71462;SDS011;59266;52.608;13.260;2022-07-19T05:55:14;11.35;;;4.18;;
71462;SDS011;59266;52.608;13.260;2022-07-19T05:57:40;11.07;;;4.63;;
71462;SDS011;59266;52.608;13.260;2022-07-19T06:00:07;9.32;;;4.45;;
71462;SDS011;59266;52.608;13.260;2022-07-19T06:02:34;12.45;;;4.63;;
71462;SDS011;59266;52.608;13.260;2022-07-19T06:05:01;12.63;;;4.53;;
71462;SDS011;59266;52.608;13.260;2022-07-19T06:07:28;11.32;;;3.60;;
71462;SDS011;59266;52.608;13.260;2022-07-19T06:09:55;12.85;;;4.68;;
71462;SDS011;59266;52.608;13.260;2022-07-19T06:12:22;10.52;;;4.22;;
71462;SDS011;59266;52.608;13.260;2022-07-19T06:14:49;10.93;;;3.92;;
71462;SDS011;59266;52.608;13.260;2022-07-19T06:17:15;15.07;;;4.20;;
71462;SDS011;59266;52.608;13.260;2022-07-19T06:19:42;8.55;;;3.92;;
71462;SDS011;59266;52.608;13.260;2022-07-19T06:22:08;10.27;;;3.80;;
71462;SDS011;59266;52.608;13.260;2022-07-19T06:24:35;9.65;;;3.75;;
71462;SDS011;59266;52.608;13.260;2022-07-19T06:27:01;10.88;;;4.03;;
71462;SDS011;59266;52.608;13.260;2022-07-19T06:29:28;13.80;;;3.97;;
71462;SDS011;59266;52.608;13.260;2022-07-19T06:31:55;10.15;;;4.32;;
71462;SDS011;59266;52.608;13.260;2022-07-19T06:34:21;10.82;;;3.15;;
71462;SDS011;59266;52.608;13.260;2022-07-19T06:36:48;10.10;;;4.10;;
71462;SDS011;59266;52.608;13.260;2022-07-19T06:39:14;9.05;;;3.67;;
71462;SDS011;59266;52.608;13.260;2022-07-19T06:41:41;12.13;;;3.90;;
71462;SDS011;59266;52.608;13.260;2022-07-19T06:44:07;10.88;;;3.83;;
71462;SDS011;59266;52.608;13.260;2022-07-19T06:46:34;10.32;;;3.65;;
71462;SDS011;59266;52.608;13.260;2022-07-19T06:49:01;8.02;;;2.67;;
71462;SDS011;59266;52.608;13.260;2022-07-19T06:51:27;7.57;;;2.90;;
71462;SDS011;59266;52.608;13.260;2022-07-19T06:53:54;9.05;;;3.05;;
71462;SDS011;59266;52.608;13.260;2022-07-19T06:56:20;7.90;;;3.35;;
71462;SDS011;59266;52.608;13.260;2022-07-19T06:58:47;7.50;;;2.85;;
71462;SDS011;59266;52.608;13.260;2022-07-19T07:01:13;7.85;;;2.58;;
71462;SDS011;59266;52.608;13.260;2022-07-19T07:03:40;7.30;;;2.80;;
71462;SDS011;59266;52.608;13.260;2022-07-19T07:06:07;7.97;;;2.85;;
71462;SDS011;59266;52.608;13.260;2022-07-19T07:08:33;6.53;;;2.55;;
71462;SDS011;59266;52.608;13.260;2022-07-19T07:11:00;6.97;;;2.60;;
71462;SDS011;59266;52.608;13.260;2022-07-19T07:13:27;6.50;;;2.55;;
71462;SDS011;59266;52.608;13.260;2022-07-19T07:15:54;6.95;;;2.90;;
71462;SDS011;59266;52.608;13.260;2022-07-19T07:18:21;8.80;;;2.80;;
71462;SDS011;59266;52.608;13.260;2022-07-19T07:20:47;9.20;;;2.92;;
71462;SDS011;59266;52.608;13.260;2022-07-19T07:23:14;9.15;;;3.00;;
71462;SDS011;59266;52.608;13.260;2022-07-19T07:25:40;7.90;;;3.20;;
71462;SDS011;59266;52.608;13.260;2022-07-19T07:28:07;9.05;;;3.17;;
71462;SDS011;59266;52.608;13.260;2022-07-19T07:30:33;12.43;;;3.17;;
71462;SDS011;59266;52.608;13.260;2022-07-19T07:33:00;9.25;;;3.30;;
71462;SDS011;59266;52.608;13.260;2022-07-19T07:35:26;7.90;;;2.95;;
71462;SDS011;59266;52.608;13.260;2022-07-19T07:37:53;7.45;;;2.40;;
71462;SDS011;59266;52.608;13.260;2022-07-19T07:40:19;8.13;;;2.70;;
71462;SDS011;59266;52.608;13.260;2022-07-19T07:42:46;7.93;;;2.60;;
71462;SDS011;59266;52.608;13.260;2022-07-19T07:45:12;7.93;;;2.70;;
71462;SDS011;59266;52.608;13.260;2022-07-19T07:47:40;8.95;;;2.92;;
71462;SDS011;59266;52.608;13.260;2022-07-19T07:50:07;7.53;;;2.55;;
71462;SDS011;59266;52.608;13.260;2022-07-19T07:52:34;10.27;;;3.47;;
71462;SDS011;59266;52.608;13.260;2022-07-19T07:55:01;8.93;;;2.80;;
71462;SDS011;59266;52.608;13.260;2022-07-19T07:57:48;5.95;;;2.35;;
71462;SDS011;59266;52.608;13.260;2022-07-19T08:00:15;7.38;;;2.45;;
71462;SDS011;59266;52.608;13.260;2022-07-19T08:02:43;7.00;;;2.38;;
71462;SDS011;59266;52.608;13.260;2022-07-19T08:07:38;9.63;;;2.60;;
71462;SDS011;59266;52.608;13.260;2022-07-19T08:10:05;6.63;;;2.50;;
71462;SDS011;59266;52.608;13.260;2022-07-19T08:12:34;6.57;;;2.53;;
71462;SDS011;59266;52.608;13.260;2022-07-19T08:15:00;7.03;;;2.38;;
71462;SDS011;59266;52.608;13.260;2022-07-19T08:17:27;7.07;;;2.40;;
71462;SDS011;59266;52.608;13.260;2022-07-19T08:19:54;9.23;;;2.75;;
71462;SDS011;59266;52.608;13.260;2022-07-19T08:22:20;8.77;;;2.67;;
71462;SDS011;59266;52.608;13.260;2022-07-19T08:24:47;7.15;;;2.63;;
71462;SDS011;59266;52.608;13.260;2022-07-19T08:27:14;7.38;;;2.67;;
71462;SDS011;59266;52.608;13.260;2022-07-19T08:29:41;8.27;;;2.42;;
71462;SDS011;59266;52.608;13.260;2022-07-19T08:32:08;6.63;;;2.60;;
71462;SDS011;59266;52.608;13.260;2022-07-19T08:34:34;9.10;;;2.33;;
71462;SDS011;59266;52.608;13.260;2022-07-19T08:37:01;9.18;;;2.58;;
71462;SDS011;59266;52.608;13.260;2022-07-19T08:39:27;6.53;;;2.03;;
71462;SDS011;59266;52.608;13.260;2022-07-19T08:41:54;5.88;;;2.65;;
71462;SDS011;59266;52.608;13.260;2022-07-19T08:44:21;8.63;;;2.42;;
71462;SDS011;59266;52.608;13.260;2022-07-19T08:46:48;14.65;;;2.55;;
71462;SDS011;59266;52.608;13.260;2022-07-19T08:49:15;8.35;;;2.35;;
71462;SDS011;59266;52.608;13.260;2022-07-19T08:51:42;6.72;;;2.22;;
71462;SDS011;59266;52.608;13.260;2022-07-19T08:54:09;7.53;;;2.53;;
71462;SDS011;59266;52.608;13.260;2022-07-19T08:56:35;6.00;;;2.35;;
71462;SDS011;59266;52.608;13.260;2022-07-19T08:59:21;9.50;;;2.83;;
71462;SDS011;59266;52.608;13.260;2022-07-19T09:01:49;9.20;;;2.60;;
71462;SDS011;59266;52.608;13.260;2022-07-19T09:04:17;8.63;;;2.65;;
71462;SDS011;59266;52.608;13.260;2022-07-19T09:06:47;9.95;;;2.47;;
71462;SDS011;59266;52.608;13.260;2022-07-19T09:09:15;10.27;;;2.80;;
71462;SDS011;59266;52.608;13.260;2022-07-19T09:11:44;8.27;;;2.50;;
71462;SDS011;59266;52.608;13.260;2022-07-19T09:14:16;10.13;;;2.60;;
71462;SDS011;59266;52.608;13.260;2022-07-19T09:16:52;7.30;;;2.33;;
71462;SDS011;59266;52.608;13.260;2022-07-19T09:19:22;9.05;;;2.92;;
71462;SDS011;59266;52.608;13.260;2022-07-19T09:21:54;9.85;;;2.60;;
71462;SDS011;59266;52.608;13.260;2022-07-19T09:24:23;7.97;;;2.42;;
71462;SDS011;59266;52.608;13.260;2022-07-19T09:26:55;9.50;;;2.83;;
71462;SDS011;59266;52.608;13.260;2022-07-19T09:29:26;9.05;;;3.00;;
71462;SDS011;59266;52.608;13.260;2022-07-19T09:31:58;7.68;;;2.70;;
71462;SDS011;59266;52.608;13.260;2022-07-19T09:34:31;7.22;;;2.42;;
71462;SDS011;59266;52.608;13.260;2022-07-19T09:37:08;7.68;;;2.58;;
71462;SDS011;59266;52.608;13.260;2022-07-19T09:39:37;7.20;;;2.53;;
71462;SDS011;59266;52.608;13.260;2022-07-19T09:42:08;8.50;;;2.80;;
71462;SDS011;59266;52.608;13.260;2022-07-19T09:44:35;11.80;;;2.83;;
71462;SDS011;59266;52.608;13.260;2022-07-19T09:47:02;7.85;;;2.45;;
71462;SDS011;59266;52.608;13.260;2022-07-19T09:49:37;8.30;;;2.63;;
71462;SDS011;59266;52.608;13.260;2022-07-19T09:52:04;7.53;;;2.80;;
71462;SDS011;59266;52.608;13.260;2022-07-19T09:54:31;6.18;;;2.67;;
71462;SDS011;59266;52.608;13.260;2022-07-19T09:56:58;5.45;;;2.60;;
71462;SDS011;59266;52.608;13.260;2022-07-19T09:59:26;9.15;;;2.47;;
71462;SDS011;59266;52.608;13.260;2022-07-19T10:01:54;6.60;;;2.63;;
71462;SDS011;59266;52.608;13.260;2022-07-19T10:04:26;7.63;;;2.75;;
71462;SDS011;59266;52.608;13.260;2022-07-19T10:06:53;7.28;;;2.70;;
71462;SDS011;59266;52.608;13.260;2022-07-19T10:09:21;7.35;;;2.72;;
71462;SDS011;59266;52.608;13.260;2022-07-19T10:11:54;6.75;;;2.80;;
71462;SDS011;59266;52.608;13.260;2022-07-19T10:14:21;7.28;;;2.70;;
71462;SDS011;59266;52.608;13.260;2022-07-19T10:19:38;10.05;;;3.03;;
71462;SDS011;59266;52.608;13.260;2022-07-19T10:22:10;12.88;;;3.00;;
71462;SDS011;59266;52.608;13.260;2022-07-19T10:24:42;8.55;;;2.80;;
71462;SDS011;59266;52.608;13.260;2022-07-19T10:27:19;6.68;;;2.75;;
71462;SDS011;59266;52.608;13.260;2022-07-19T10:32:47;7.53;;;2.50;;
71462;SDS011;59266;52.608;13.260;2022-07-19T10:37:53;6.20;;;2.13;;
71462;SDS011;59266;52.608;13.260;2022-07-19T10:40:44;6.82;;;2.42;;
71462;SDS011;59266;52.608;13.260;2022-07-19T10:43:16;5.38;;;2.13;;
71462;SDS011;59266;52.608;13.260;2022-07-19T10:48:41;8.05;;;2.40;;
71462;SDS011;59266;52.608;13.260;2022-07-19T10:51:26;5.50;;;2.13;;
71462;SDS011;59266;52.608;13.260;2022-07-19T10:54:08;5.25;;;1.98;;
71462;SDS011;59266;52.608;13.260;2022-07-19T10:56:37;4.30;;;1.80;;
71462;SDS011;59266;52.608;13.260;2022-07-19T10:59:31;7.03;;;2.00;;
71462;SDS011;59266;52.608;13.260;2022-07-19T11:02:00;8.63;;;2.08;;
71462;SDS011;59266;52.608;13.260;2022-07-19T11:04:48;5.55;;;2.10;;
71462;SDS011;59266;52.608;13.260;2022-07-19T11:07:19;5.15;;;1.92;;
71462;SDS011;59266;52.608;13.260;2022-07-19T11:09:57;5.03;;;2.22;;
71462;SDS011;59266;52.608;13.260;2022-07-19T11:12:25;6.53;;;2.20;;
71462;SDS011;59266;52.608;13.260;2022-07-19T11:14:57;6.03;;;1.90;;
71462;SDS011;59266;52.608;13.260;2022-07-19T11:17:52;5.60;;;2.10;;
71462;SDS011;59266;52.608;13.260;2022-07-19T11:20:25;5.63;;;1.70;;
71462;SDS011;59266;52.608;13.260;2022-07-19T11:22:53;4.40;;;1.60;;
71462;SDS011;59266;52.608;13.260;2022-07-19T11:25:29;6.20;;;1.80;;
71462;SDS011;59266;52.608;13.260;2022-07-19T11:27:59;5.40;;;2.00;;
71462;SDS011;59266;52.608;13.260;2022-07-19T11:30:27;5.03;;;1.77;;
71462;SDS011;59266;52.608;13.260;2022-07-19T11:32:57;6.30;;;1.90;;
71462;SDS011;59266;52.608;13.260;2022-07-19T11:35:25;5.13;;;1.60;;
71462;SDS011;59266;52.608;13.260;2022-07-19T11:37:53;7.47;;;1.92;;
71462;SDS011;59266;52.608;13.260;2022-07-19T11:40:21;7.72;;;1.90;;
71462;SDS011;59266;52.608;13.260;2022-07-19T11:42:49;6.22;;;2.28;;
71462;SDS011;59266;52.608;13.260;2022-07-19T11:45:47;5.63;;;2.08;;
71462;SDS011;59266;52.608;13.260;2022-07-19T11:48:29;6.20;;;1.90;;
71462;SDS011;59266;52.608;13.260;2022-07-19T11:50:57;5.97;;;2.25;;
71462;SDS011;59266;52.608;13.260;2022-07-19T11:53:25;5.90;;;2.20;;
71462;SDS011;59266;52.608;13.260;2022-07-19T11:55:51;7.90;;;2.15;;
71462;SDS011;59266;52.608;13.260;2022-07-19T11:58:20;7.30;;;2.70;;
71462;SDS011;59266;52.608;13.260;2022-07-19T12:00:47;7.18;;;2.50;;
71462;SDS011;59266;52.608;13.260;2022-07-19T12:03:15;7.30;;;2.20;;
71462;SDS011;59266;52.608;13.260;2022-07-19T12:05:56;6.25;;;2.50;;
71462;SDS011;59266;52.608;13.260;2022-07-19T12:08:35;7.50;;;2.50;;
71462;SDS011;59266;52.608;13.260;2022-07-19T12:11:16;4.82;;;2.25;;
71462;SDS011;59266;52.608;13.260;2022-07-19T12:13:44;6.18;;;2.30;;
71462;SDS011;59266;52.608;13.260;2022-07-19T12:16:14;6.72;;;2.42;;
71462;SDS011;59266;52.608;13.260;2022-07-19T12:18:45;9.30;;;3.08;;
71462;SDS011;59266;52.608;13.260;2022-07-19T12:23:42;7.05;;;2.80;;
71462;SDS011;59266;52.608;13.260;2022-07-19T12:26:29;5.43;;;2.50;;
71462;SDS011;59266;52.608;13.260;2022-07-19T12:29:16;8.70;;;2.65;;
71462;SDS011;59266;52.608;13.260;2022-07-19T12:34:13;6.82;;;2.53;;
71462;SDS011;59266;52.608;13.260;2022-07-19T12:36:40;8.77;;;2.53;;
71462;SDS011;59266;52.608;13.260;2022-07-19T12:39:16;8.23;;;2.83;;
71462;SDS011;59266;52.608;13.260;2022-07-19T12:44:23;8.23;;;2.55;;
71462;SDS011;59266;52.608;13.260;2022-07-19T12:46:50;5.45;;;2.42;;
71462;SDS011;59266;52.608;13.260;2022-07-19T12:49:40;8.00;;;2.50;;
71462;SDS011;59266;52.608;13.260;2022-07-19T12:52:07;6.38;;;2.80;;
71462;SDS011;59266;52.608;13.260;2022-07-19T12:54:34;7.63;;;2.83;;
71462;SDS011;59266;52.608;13.260;2022-07-19T12:57:01;6.15;;;2.40;;
71462;SDS011;59266;52.608;13.260;2022-07-19T12:59:27;8.65;;;2.67;;
71462;SDS011;59266;52.608;13.260;2022-07-19T13:02:15;9.05;;;3.08;;
71462;SDS011;59266;52.608;13.260;2022-07-19T13:04:43;6.88;;;2.60;;
71462;SDS011;59266;52.608;13.260;2022-07-19T13:07:11;7.10;;;2.63;;
71462;SDS011;59266;52.608;13.260;2022-07-19T13:09:39;8.00;;;2.50;;
71462;SDS011;59266;52.608;13.260;2022-07-19T13:12:06;6.78;;;2.35;;
71462;SDS011;59266;52.608;13.260;2022-07-19T13:14:34;9.48;;;2.70;;
71462;SDS011;59266;52.608;13.260;2022-07-19T13:17:01;8.65;;;2.67;;
71462;SDS011;59266;52.608;13.260;2022-07-19T13:19:29;8.57;;;2.72;;
71462;SDS011;59266;52.608;13.260;2022-07-19T13:21:55;8.82;;;2.80;;
71462;SDS011;59266;52.608;13.260;2022-07-19T13:24:22;7.40;;;2.50;;
71462;SDS011;59266;52.608;13.260;2022-07-19T13:27:09;8.27;;;2.90;;
71462;SDS011;59266;52.608;13.260;2022-07-19T13:29:35;6.40;;;2.88;;
71462;SDS011;59266;52.608;13.260;2022-07-19T13:32:03;6.72;;;2.50;;
71462;SDS011;59266;52.608;13.260;2022-07-19T13:34:32;7.65;;;2.53;;
71462;SDS011;59266;52.608;13.260;2022-07-19T13:36:59;7.00;;;2.63;;
71462;SDS011;59266;52.608;13.260;2022-07-19T13:39:25;9.63;;;2.42;;
71462;SDS011;59266;52.608;13.260;2022-07-19T13:41:52;9.48;;;2.67;;
71462;SDS011;59266;52.608;13.260;2022-07-19T13:44:18;7.28;;;2.55;;
71462;SDS011;59266;52.608;13.260;2022-07-19T13:46:45;7.60;;;2.70;;
71462;SDS011;59266;52.608;13.260;2022-07-19T13:49:12;6.72;;;2.42;;
71462;SDS011;59266;52.608;13.260;2022-07-19T13:51:38;9.93;;;2.95;;
71462;SDS011;59266;52.608;13.260;2022-07-19T13:54:05;7.28;;;2.70;;
71462;SDS011;59266;52.608;13.260;2022-07-19T13:56:32;6.20;;;2.60;;
71462;SDS011;59266;52.608;13.260;2022-07-19T13:58:59;6.60;;;2.65;;
71462;SDS011;59266;52.608;13.260;2022-07-19T14:01:29;7.93;;;2.80;;
71462;SDS011;59266;52.608;13.260;2022-07-19T14:04:11;10.85;;;3.13;;
71462;SDS011;59266;52.608;13.260;2022-07-19T14:06:45;6.68;;;2.50;;
71462;SDS011;59266;52.608;13.260;2022-07-19T14:09:11;6.75;;;2.53;;
71462;SDS011;59266;52.608;13.260;2022-07-19T14:11:38;7.38;;;2.97;;
71462;SDS011;59266;52.608;13.260;2022-07-19T14:14:05;8.10;;;2.90;;
71462;SDS011;59266;52.608;13.260;2022-07-19T14:16:32;8.30;;;2.53;;
71462;SDS011;59266;52.608;13.260;2022-07-19T14:18:58;6.55;;;2.60;;
71462;SDS011;59266;52.608;13.260;2022-07-19T14:21:25;13.68;;;2.88;;
71462;SDS011;59266;52.608;13.260;2022-07-19T14:23:51;7.95;;;2.60;;
71462;SDS011;59266;52.608;13.260;2022-07-19T14:26:18;7.63;;;2.58;;
71462;SDS011;59266;52.608;13.260;2022-07-19T14:28:45;7.05;;;2.55;;
71462;SDS011;59266;52.608;13.260;2022-07-19T14:31:12;7.30;;;2.65;;
71462;SDS011;59266;52.608;13.260;2022-07-19T14:36:08;7.10;;;2.65;;
71462;SDS011;59266;52.608;13.260;2022-07-19T14:38:35;7.32;;;2.80;;
71462;SDS011;59266;52.608;13.260;2022-07-19T14:41:01;11.77;;;2.85;;
71462;SDS011;59266;52.608;13.260;2022-07-19T14:43:29;9.38;;;2.65;;
71462;SDS011;59266;52.608;13.260;2022-07-19T14:45:55;7.57;;;2.80;;
71462;SDS011;59266;52.608;13.260;2022-07-19T14:48:22;7.15;;;2.55;;
71462;SDS011;59266;52.608;13.260;2022-07-19T14:50:49;8.65;;;2.67;;
71462;SDS011;59266;52.608;13.260;2022-07-19T14:53:16;9.20;;;2.88;;
71462;SDS011;59266;52.608;13.260;2022-07-19T14:55:43;10.35;;;2.60;;
71462;SDS011;59266;52.608;13.260;2022-07-19T14:58:09;9.02;;;2.70;;
71462;SDS011;59266;52.608;13.260;2022-07-19T15:00:36;6.53;;;2.78;;